Time;durP1;ratioP1;P1;durP2;ratioP2;P2;SDS_P1;SDS_P2;PMS_P1;PMS_P2;Temp;Humidity;BMP_temperature;BMP_pressure;BME280_temperature;BME280_humidity;BME280_pressure;Samples;Min_cycle;Max_cycle;Signal;HPM_P1;HPM_P2
2022/07/19 00:00:46;;;;;;;9.30;2.70;;;;;;;17.29;56.08;101067.22;4985039;28;20154;-77
2022/07/19 00:03:12;;;;;;;7.60;2.60;;;;;;;17.30;55.79;101073.44;4984165;28;20489;-77
2022/07/19 00:05:37;;;;;;;9.95;2.70;;;;;;;17.33;55.47;101069.81;4986843;28;20058;-77
2022/07/19 00:08:03;;;;;;;5.28;2.15;;;;;;;17.33;55.06;101068.00;4989970;28;20035;-77
2022/07/19 00:10:28;;;;;;;7.70;2.15;;;;;;;17.31;55.41;101075.16;4985979;28;20042;-77
2022/07/19 00:12:54;;;;;;;6.95;2.28;;;;;;;17.27;54.95;101065.50;4979663;28;20049;-77
2022/07/19 00:15:19;;;;;;;4.00;2.38;;;;;;;17.20;55.41;101066.56;4985102;28;20039;-77
2022/07/19 00:17:47;;;;;;;7.75;2.35;;;;;;;17.12;55.84;101060.56;4984166;28;20387;-77
2022/07/19 00:20:15;;;;;;;6.82;2.40;;;;;;;17.04;56.54;101064.28;4993821;28;20073;-77
2022/07/19 00:22:41;;;;;;;9.07;2.47;;;;;;;16.96;56.60;101066.25;4982994;28;20039;-77
2022/07/19 00:25:07;;;;;;;7.68;2.55;;;;;;;16.96;56.40;101068.94;4968030;28;20026;-77
2022/07/19 00:27:32;;;;;;;5.43;1.83;;;;;;;16.93;56.37;101074.34;4984778;28;20438;-77
2022/07/19 00:29:58;;;;;;;9.35;2.63;;;;;;;16.89;56.66;101072.63;4984274;28;20068;-77
2022/07/19 00:32:23;;;;;;;11.15;2.70;;;;;;;16.87;56.34;101063.78;4985146;28;20132;-77
2022/07/19 00:34:48;;;;;;;4.22;2.20;;;;;;;16.89;56.36;101066.44;4983116;28;20042;-77
2022/07/19 00:37:14;;;;;;;4.55;2.25;;;;;;;16.84;55.93;101062.06;4986715;28;20031;-77
2022/07/19 00:39:39;;;;;;;11.82;2.65;;;;;;;16.77;57.33;101063.16;4983583;28;20405;-77
2022/07/19 00:42:04;;;;;;;6.53;2.63;;;;;;;16.74;58.80;101064.97;4988303;28;20127;-77
2022/07/19 00:44:30;;;;;;;6.50;2.40;;;;;;;16.61;58.04;101062.59;4986466;28;20096;-77
2022/07/19 00:46:55;;;;;;;5.78;2.25;;;;;;;16.58;57.35;101062.69;4985353;28;20157;-77
2022/07/19 00:49:21;;;;;;;9.55;2.13;;;;;;;16.55;57.59;101061.84;4984296;28;20494;-77
2022/07/19 00:51:47;;;;;;;6.18;2.55;;;;;;;16.51;58.33;101060.19;4988983;28;20059;-77
2022/07/19 00:54:13;;;;;;;6.93;2.08;;;;;;;16.48;58.14;101065.56;4985420;28;20049;-76
2022/07/19 00:56:38;;;;;;;6.63;2.03;;;;;;;16.48;57.79;101066.47;4995431;28;20047;-77
2022/07/19 00:59:04;;;;;;;3.97;2.13;;;;;;;16.55;57.49;101056.53;4984176;28;20442;-77
2022/07/19 01:01:31;;;;;;;6.13;2.35;;;;;;;16.51;58.03;101061.06;4988455;28;20041;-77
2022/07/19 01:03:57;;;;;;;5.63;2.45;;;;;;;16.53;57.84;101059.25;4982670;28;20090;-77
2022/07/19 01:06:23;;;;;;;7.32;1.90;;;;;;;16.56;57.70;101058.28;4986882;28;20038;-77
2022/07/19 01:08:48;;;;;;;8.35;2.22;;;;;;;16.56;57.56;101058.28;4982977;28;20110;-77
2022/07/19 01:11:14;;;;;;;4.45;1.70;;;;;;;16.54;57.29;101058.31;4985409;28;20116;-77
2022/07/19 01:13:39;;;;;;;4.85;2.05;;;;;;;16.50;57.18;101051.28;4983746;28;20077;-77
2022/07/19 01:16:05;;;;;;;9.07;2.15;;;;;;;16.47;57.52;101046.03;4984717;28;20046;-76
2022/07/19 01:18:30;;;;;;;8.02;1.60;;;;;;;16.47;57.50;101046.03;4982465;28;20045;-77
2022/07/19 01:20:57;;;;;;;6.53;1.88;;;;;;;16.45;57.32;101055.84;4985172;28;20042;-77
2022/07/19 01:23:23;;;;;;;5.65;1.25;;;;;;;16.41;57.19;101057.72;4982709;28;20038;-77
2022/07/19 01:25:48;;;;;;;5.40;1.42;;;;;;;16.42;57.60;101050.59;4984160;28;20043;-77
2022/07/19 01:28:14;;;;;;;3.63;1.58;;;;;;;16.42;57.71;101058.56;4983714;28;20042;-77
2022/07/19 01:30:39;;;;;;;5.80;2.00;;;;;;;16.37;59.14;101058.69;4983242;28;20459;-77
2022/07/19 01:33:04;;;;;;;3.55;1.52;;;;;;;16.32;58.45;101063.25;4984256;28;20035;-77
2022/07/19 01:35:30;;;;;;;9.70;1.83;;;;;;;16.26;58.76;101062.50;4982084;28;20030;-77
2022/07/19 01:37:55;;;;;;;7.35;2.08;;;;;;;16.26;58.22;101065.16;4989625;28;20594;-77
2022/07/19 01:40:22;;;;;;;4.95;1.50;;;;;;;16.24;58.08;101061.63;4984162;28;20042;-77
2022/07/19 01:42:48;;;;;;;3.25;1.27;;;;;;;16.20;58.77;101061.69;4982570;28;20085;-77
2022/07/19 01:45:14;;;;;;;5.22;1.80;;;;;;;16.16;58.29;101060.00;4981587;28;20046;-77
2022/07/19 01:47:40;;;;;;;5.82;1.58;;;;;;;16.16;58.44;101053.81;4980112;28;20041;-77
2022/07/19 01:50:07;;;;;;;6.20;1.85;;;;;;;16.09;59.26;101061.06;4984915;28;20109;-77
2022/07/19 01:52:32;;;;;;;6.10;1.85;;;;;;;16.01;59.59;101055.03;4981441;28;20113;-77
2022/07/19 01:54:57;;;;;;;5.40;1.73;;;;;;;16.00;59.35;101050.59;4983669;28;20784;-77
2022/07/19 01:57:23;;;;;;;3.70;1.73;;;;;;;16.00;59.17;101056.78;4982994;28;20121;-76
2022/07/19 01:59:49;;;;;;;3.78;1.63;;;;;;;15.98;59.60;101047.97;4982567;28;20054;-77
2022/07/19 02:02:15;;;;;;;5.00;1.50;;;;;;;16.00;59.58;101048.78;4989210;28;20049;-76
2022/07/19 02:04:40;;;;;;;4.05;1.40;;;;;;;16.00;59.64;101054.13;4982345;28;20098;-76
2022/07/19 02:07:05;;;;;;;5.68;1.70;;;;;;;16.01;59.51;101055.03;4988005;28;20473;-76
2022/07/19 02:09:31;;;;;;;2.97;1.50;;;;;;;15.95;59.36;101053.31;4984999;28;20791;-76
2022/07/19 02:11:56;;;;;;;4.72;1.88;;;;;;;15.91;59.21;101056.97;4987224;28;20401;-76
2022/07/19 02:14:21;;;;;;;4.20;2.08;;;;;;;15.88;59.27;101045.53;4982514;28;20378;-77
2022/07/19 02:16:47;;;;;;;11.10;2.10;;;;;;;15.89;59.84;101041.94;4983734;28;20513;-77
2022/07/19 02:19:12;;;;;;;5.93;2.30;;;;;;;15.86;60.10;101042.00;4981214;28;20724;-76
2022/07/19 02:21:38;;;;;;;5.03;1.77;;;;;;;15.84;60.13;101043.81;4983769;28;20505;-77
2022/07/19 02:24:05;;;;;;;3.35;1.73;;;;;;;15.85;60.00;101048.22;4981748;28;20042;-77
2022/07/19 02:26:31;;;;;;;3.22;1.65;;;;;;;15.74;60.35;101038.66;4982745;28;20042;-77
2022/07/19 02:28:56;;;;;;;5.05;1.92;;;;;;;15.67;61.22;101038.81;4982866;28;20042;-77
2022/07/19 02:31:22;;;;;;;3.95;1.77;;;;;;;15.65;61.12;101041.47;4981053;28;20043;-77
2022/07/19 02:33:47;;;;;;;6.38;2.00;;;;;;;15.63;60.69;101035.31;4984109;28;20073;-77
2022/07/19 02:36:13;;;;;;;6.63;1.67;;;;;;;15.59;61.42;101033.63;4988200;28;20017;-77
2022/07/19 02:38:39;;;;;;;4.90;2.00;;;;;;;15.55;61.61;101034.56;4982236;28;20382;-76
2022/07/19 02:41:04;;;;;;;4.85;1.75;;;;;;;15.53;61.50;101031.06;4981159;28;20046;-77
2022/07/19 02:43:30;;;;;;;5.95;1.60;;;;;;;15.55;61.44;101040.75;4981656;28;20046;-77
2022/07/19 02:45:55;;;;;;;2.85;1.50;;;;;;;15.55;61.31;101038.09;4983083;28;20034;-77
2022/07/19 02:48:21;;;;;;;3.92;1.50;;;;;;;15.56;61.41;101046.97;4980820;28;20095;-77
2022/07/19 02:50:46;;;;;;;3.63;1.48;;;;;;;15.50;61.67;101037.31;4979095;28;20042;-77
2022/07/19 02:53:11;;;;;;;4.25;1.70;;;;;;;15.46;61.83;101040.94;4986283;28;20034;-77
2022/07/19 02:55:37;;;;;;;3.63;1.63;;;;;;;15.46;61.62;101040.09;4981359;28;20121;-76
2022/07/19 02:58:03;;;;;;;4.45;1.50;;;;;;;15.41;62.31;101044.59;4982068;28;20040;-77
2022/07/19 03:00:29;;;;;;;4.38;1.70;;;;;;;15.40;61.86;101046.34;4982742;28;20046;-77
2022/07/19 03:02:54;;;;;;;3.03;1.80;;;;;;;15.41;61.73;101044.59;4980242;28;20042;-77
2022/07/19 03:05:20;;;;;;;3.55;1.75;;;;;;;15.44;61.72;101047.19;4983778;28;20042;-77
2022/07/19 03:07:45;;;;;;;3.40;1.48;;;;;;;15.44;62.00;101044.53;4981950;28;20046;-77
2022/07/19 03:10:10;;;;;;;3.72;1.50;;;;;;;15.37;62.39;101046.41;4982821;28;20041;-77
2022/07/19 03:12:36;;;;;;;2.55;1.50;;;;;;;15.36;62.25;101057.09;4981007;28;20045;-77
2022/07/19 03:15:02;;;;;;;6.07;1.92;;;;;;;15.36;64.08;101057.09;4981195;28;20045;-77
2022/07/19 03:17:27;;;;;;;5.75;1.80;;;;;;;15.27;62.63;101066.09;4984032;28;20075;-77
2022/07/19 03:19:53;;;;;;;1.25;1.00;;;;;;;15.30;63.23;101066.03;4987466;28;20517;-77
2022/07/19 03:22:18;;;;;;;2.67;1.50;;;;;;;15.26;63.92;101064.34;4986726;28;20097;-77
2022/07/19 03:24:43;;;;;;;5.22;0.90;;;;;;;15.29;63.17;101062.50;4984834;28;20074;-77
2022/07/19 03:27:09;;;;;;;1.50;0.82;;;;;;;15.32;63.30;101058.91;4986247;28;20037;-77
2022/07/19 03:29:34;;;;;;;1.92;1.17;;;;;;;15.36;62.76;101057.09;4985859;28;20465;-77
2022/07/19 03:31:59;;;;;;;2.17;1.10;;;;;;;15.36;63.27;101060.63;4984522;28;20114;-77
2022/07/19 03:34:25;;;;;;;2.33;1.27;;;;;;;15.37;63.39;101067.69;4986794;28;20125;-76
2022/07/19 03:36:51;;;;;;;3.38;1.40;;;;;;;15.38;63.03;101069.47;4986818;28;20081;-76
2022/07/19 03:39:16;;;;;;;4.47;1.30;;;;;;;15.44;62.67;101063.16;4987100;28;20470;-77
2022/07/19 03:41:41;;;;;;;2.90;0.85;;;;;;;15.51;62.77;101059.47;4984043;28;20038;-76
2022/07/19 03:44:07;;;;;;;1.23;0.73;;;;;;;15.54;62.53;101067.41;4988448;28;20034;-76
2022/07/19 03:46:32;;;;;;;3.13;1.35;;;;;;;15.60;62.57;101066.44;4983852;28;20042;-77
2022/07/19 03:48:57;;;;;;;5.05;1.52;;;;;;;15.65;63.21;101065.44;4990472;28;20030;-77
2022/07/19 03:51:23;;;;;;;2.95;1.40;;;;;;;15.65;62.10;101070.75;4983416;28;20117;-77
2022/07/19 03:53:48;;;;;;;2.28;1.10;;;;;;;15.72;62.34;101064.44;5001342;28;20125;-76
2022/07/19 03:56:14;;;;;;;4.30;1.10;;;;;;;15.81;61.53;101067.84;4990713;28;20031;-77
2022/07/19 03:58:40;;;;;;;4.85;1.23;;;;;;;15.88;62.44;101070.34;4985675;28;20066;-77
2022/07/19 04:01:06;;;;;;;4.90;1.50;;;;;;;15.98;62.01;101065.69;4984832;28;20038;-77
2022/07/19 04:03:37;;;;;;;3.60;1.00;;;;;;;16.08;62.06;101061.94;4984359;28;20133;-77
2022/07/19 04:06:02;;;;;;;4.45;1.50;;;;;;;16.09;62.20;101060.19;4986693;28;20042;-77
2022/07/19 04:08:27;;;;;;;1.95;1.02;;;;;;;16.13;61.81;101060.06;4986429;28;20041;-77
2022/07/19 04:10:53;;;;;;;4.55;1.42;;;;;;;16.24;61.39;101061.63;4984716;28;20042;-77
2022/07/19 04:13:18;;;;;;;6.43;1.05;;;;;;;16.29;61.94;101059.75;4988239;28;20117;-77
2022/07/19 04:15:43;;;;;;;4.35;1.00;;;;;;;16.42;62.02;101059.44;4988539;28;20098;-77
2022/07/19 04:18:09;;;;;;;5.43;1.83;;;;;;;16.55;61.65;101049.41;4991153;28;20085;-78
2022/07/19 04:20:34;;;;;;;1.38;0.95;;;;;;;16.64;61.53;101056.31;4983348;28;20043;-77
2022/07/19 04:22:59;;;;;;;1.50;0.90;;;;;;;16.75;61.33;101056.06;4997733;28;20047;-77
2022/07/19 04:25:25;;;;;;;1.40;0.80;;;;;;;16.89;61.15;101066.44;4990796;28;20154;-78
2022/07/19 04:27:51;;;;;;;2.85;1.13;;;;;;;16.99;60.63;101055.50;4986722;28;20039;-77
2022/07/19 04:30:16;;;;;;;2.22;1.10;;;;;;;17.08;59.85;101049.97;4983665;28;20050;-77
2022/07/19 04:32:41;;;;;;;2.58;1.02;;;;;;;17.21;60.13;101050.53;4981825;28;20121;-77
2022/07/19 04:35:07;;;;;;;2.55;1.48;;;;;;;17.33;59.84;101051.13;4987353;28;20066;-77
2022/07/19 04:37:33;;;;;;;1.48;0.93;;;;;;;17.44;60.08;101052.59;4989304;28;20042;-78
2022/07/19 04:39:59;;;;;;;2.25;1.33;;;;;;;17.54;59.87;101050.56;4992354;28;20037;-78
2022/07/19 04:42:24;;;;;;;2.13;1.08;;;;;;;17.66;59.29;101054.72;4987850;28;20043;-78
2022/07/19 04:44:49;;;;;;;4.18;1.30;;;;;;;17.81;59.30;101056.09;4988383;28;20037;-77
2022/07/19 04:47:15;;;;;;;3.50;1.58;;;;;;;17.93;59.11;101053.97;4988094;28;20046;-78
2022/07/19 04:49:40;;;;;;;2.53;1.20;;;;;;;18.09;58.42;101053.53;4989055;28;20042;-78
2022/07/19 04:52:05;;;;;;;1.98;1.45;;;;;;;18.20;57.66;101056.75;4981962;28;20114;-78
2022/07/19 04:54:31;;;;;;;4.15;1.73;;;;;;;18.29;56.75;101061.84;4987563;28;20114;-77
2022/07/19 04:56:56;;;;;;;1.90;1.10;;;;;;;18.39;56.97;101062.41;4990689;28;20493;-77
2022/07/19 04:59:21;;;;;;;4.00;1.33;;;;;;;18.50;57.44;101062.13;4990872;28;20046;-77
2022/07/19 05:01:47;;;;;;;2.42;0.98;;;;;;;18.59;58.17;101065.38;4988049;28;20034;-77
2022/07/19 05:04:12;;;;;;;1.95;1.13;;;;;;;18.71;58.13;101058.78;4990536;28;20042;-77
2022/07/19 05:06:37;;;;;;;1.33;0.82;;;;;;;18.83;56.59;101069.09;4981274;28;20046;-77
2022/07/19 05:09:03;;;;;;;2.17;1.00;;;;;;;18.95;56.43;101058.94;4983999;28;20038;-77
2022/07/19 05:11:28;;;;;;;2.22;1.33;;;;;;;19.09;56.12;101054.00;4981209;28;20098;-77
2022/07/19 05:13:54;;;;;;;3.92;1.30;;;;;;;19.23;55.44;101050.88;4983784;28;20501;-77
2022/07/19 05:16:19;;;;;;;2.00;1.00;;;;;;;19.36;55.05;101054.00;4986343;28;20043;-78
2022/07/19 05:18:45;;;;;;;3.80;1.42;;;;;;;19.46;54.80;101052.75;4988799;28;20042;-77
2022/07/19 05:21:10;;;;;;;5.10;1.05;;;;;;;19.59;54.43;101054.06;4985855;28;20049;-77
2022/07/19 05:23:35;;;;;;;3.58;1.55;;;;;;;19.72;53.66;101048.31;4982135;28;20557;-77
2022/07/19 05:26:00;;;;;;;3.22;1.70;;;;;;;19.84;53.56;101051.44;4985566;28;20563;-77
2022/07/19 05:28:26;;;;;;;3.15;1.25;;;;;;;19.99;52.96;101050.00;4982731;28;20081;-78
2022/07/19 05:30:51;;;;;;;3.22;1.33;;;;;;;20.10;52.02;101047.81;4984044;28;20046;-78
2022/07/19 05:33:17;;;;;;;1.65;1.13;;;;;;;20.25;51.75;101045.47;4980758;28;20070;-78
2022/07/19 05:35:42;;;;;;;3.33;1.40;;;;;;;20.35;51.28;101041.50;4984122;28;20041;-78
2022/07/19 05:38:08;;;;;;;3.28;1.30;;;;;;;20.47;50.45;101043.72;4985371;28;20100;-78
2022/07/19 05:40:33;;;;;;;1.98;1.17;;;;;;;20.59;51.11;101045.06;5000963;28;20046;-78
2022/07/19 05:43:00;;;;;;;2.50;1.23;;;;;;;20.68;50.67;101046.50;4983522;28;20043;-78
2022/07/19 05:45:25;;;;;;;3.28;2.08;;;;;;;20.81;50.27;101047.75;4984141;28;20465;-78
2022/07/19 05:47:51;;;;;;;1.90;1.50;;;;;;;20.93;50.12;101044.59;4978605;28;20061;-78
2022/07/19 05:50:16;;;;;;;2.60;1.25;;;;;;;21.05;49.72;101035.16;4981620;28;20057;-78
2022/07/19 05:52:41;;;;;;;2.50;1.35;;;;;;;21.15;49.57;101041.88;4987839;28;20034;-78
2022/07/19 05:55:07;;;;;;;2.72;1.20;;;;;;;21.20;49.83;101045.25;4975386;28;20077;-78
2022/07/19 05:57:32;;;;;;;3.38;1.20;;;;;;;21.31;49.45;101042.09;4968176;28;20031;-78
2022/07/19 05:59:58;;;;;;;2.33;1.08;;;;;;;21.43;49.69;101036.25;4967601;28;20042;-78
2022/07/19 06:02:24;;;;;;;1.80;0.90;;;;;;;21.57;49.01;101037.44;4985227;28;20533;-78
2022/07/19 06:04:49;;;;;;;2.90;1.70;;;;;;;21.71;48.62;101039.53;4983666;28;20400;-78
2022/07/19 06:07:14;;;;;;;5.15;1.33;;;;;;;21.84;48.66;101038.91;4965227;28;20054;-78
2022/07/19 06:09:40;;;;;;;3.38;1.75;;;;;;;21.97;48.11;101046.41;4987263;28;20065;-78
2022/07/19 06:12:05;;;;;;;2.97;1.10;;;;;;;22.10;48.16;101045.78;4963166;28;20043;-77
2022/07/19 06:14:31;;;;;;;2.08;1.05;;;;;;;22.25;47.76;101044.22;4983514;28;20084;-78
2022/07/19 06:16:56;;;;;;;1.52;1.10;;;;;;;22.43;47.20;101047.03;5002233;28;20037;-78
2022/07/19 06:19:21;;;;;;;1.75;0.90;;;;;;;22.58;47.31;101043.56;4985328;28;20070;-78
2022/07/19 06:21:47;;;;;;;1.35;0.77;;;;;;;22.71;46.53;101050.09;4985829;28;20046;-78
2022/07/19 06:24:12;;;;;;;1.58;0.98;;;;;;;22.86;46.48;101050.31;4975295;28;20049;-78
2022/07/19 06:26:38;;;;;;;2.13;1.02;;;;;;;23.00;45.50;101049.66;4980484;28;20102;-78
2022/07/19 06:29:04;;;;;;;2.17;1.00;;;;;;;23.13;44.35;101046.28;4984880;28;20026;-78
2022/07/19 06:31:29;;;;;;;1.65;1.20;;;;;;;23.30;44.84;101049.94;4981370;28;20046;-78
2022/07/19 06:33:54;;;;;;;7.57;1.27;;;;;;;23.42;44.64;101043.91;4981088;28;20034;-78
2022/07/19 06:36:20;;;;;;;1.65;1.00;;;;;;;23.58;44.80;101042.19;4983819;28;20073;-78
2022/07/19 06:38:45;;;;;;;1.30;0.90;;;;;;;23.71;44.12;101042.41;4986543;28;20058;-79
2022/07/19 06:41:12;;;;;;;2.38;0.88;;;;;;;23.88;43.41;101043.38;4982306;28;20046;-79
2022/07/19 06:43:40;;;;;;;1.60;1.00;;;;;;;24.06;43.16;101047.75;4980497;28;20047;-79
2022/07/19 06:46:06;;;;;;;1.33;0.57;;;;;;;24.17;42.47;101044.47;4982671;28;20061;-79
2022/07/19 06:48:31;;;;;;;6.07;1.05;;;;;;;24.33;42.53;101047.19;4978446;28;20489;-79
2022/07/19 06:50:57;;;;;;;3.17;0.88;;;;;;;24.45;41.77;101047.41;4983537;28;20041;-79
2022/07/19 06:53:22;;;;;;;0.93;0.40;;;;;;;24.55;40.18;101041.50;4970585;28;20120;-79
2022/07/19 06:55:48;;;;;;;2.05;0.95;;;;;;;24.76;38.85;101043.00;4988655;28;20038;-79
2022/07/19 06:58:13;;;;;;;2.53;0.90;;;;;;;24.92;38.95;101037.56;4982960;28;20133;-79
2022/07/19 07:00:39;;;;;;;1.83;0.60;;;;;;;25.05;38.70;101037.75;4980610;28;20405;-79
2022/07/19 07:03:04;;;;;;;2.40;0.77;;;;;;;25.16;38.22;101043.41;4981778;28;20039;-79
2022/07/19 07:05:30;;;;;;;1.73;0.80;;;;;;;25.25;38.80;101042.84;4984666;28;20081;-79
2022/07/19 07:07:56;;;;;;;3.25;0.85;;;;;;;25.38;38.18;101044.81;4986039;28;20026;-79
2022/07/19 07:10:21;;;;;;;5.10;1.20;;;;;;;25.47;37.58;101039.75;4974097;28;20045;-79
2022/07/19 07:12:47;;;;;;;1.73;0.80;;;;;;;25.53;37.54;101041.19;4968391;28;20122;-79
2022/07/19 07:15:12;;;;;;;2.10;1.33;;;;;;;25.57;36.98;101032.81;4973366;28;20035;-79
2022/07/19 07:17:38;;;;;;;1.60;0.70;;;;;;;25.63;37.60;101034.25;4966155;28;20034;-79
2022/07/19 07:20:06;;;;;;;1.80;0.88;;;;;;;25.73;37.07;101029.19;4989438;28;20444;-79
2022/07/19 07:22:33;;;;;;;3.55;0.95;;;;;;;25.84;36.60;101028.50;4987240;28;20121;-79
2022/07/19 07:24:59;;;;;;;7.40;1.10;;;;;;;25.95;36.85;101031.44;4984892;28;20035;-79
2022/07/19 07:27:24;;;;;;;3.75;1.10;;;;;;;26.08;36.67;101036.94;4970346;28;20048;-79
2022/07/19 07:29:50;;;;;;;1.00;0.75;;;;;;;26.15;36.27;101032.88;4978276;28;20038;-80
2022/07/19 07:32:15;;;;;;;1.90;1.23;;;;;;;26.26;36.01;101026.78;4985105;28;20039;-79
2022/07/19 07:34:41;;;;;;;1.63;1.02;;;;;;;26.36;36.01;101028.81;4982179;28;20030;-79
2022/07/19 07:37:06;;;;;;;2.17;0.95;;;;;;;26.49;35.29;101028.88;4986700;28;20045;-80
2022/07/19 07:39:32;;;;;;;2.45;1.05;;;;;;;26.59;35.40;101019.22;4984716;28;20040;-79
2022/07/19 07:41:57;;;;;;;4.20;0.90;;;;;;;26.65;35.28;101017.94;4983915;28;20027;-79
2022/07/19 07:44:23;;;;;;;4.13;1.05;;;;;;;26.76;35.68;101014.53;4964416;28;20068;-80
2022/07/19 07:46:48;;;;;;;3.70;1.55;;;;;;;26.88;35.45;101022.72;4974340;28;20406;-80
2022/07/19 07:49:14;;;;;;;4.63;1.92;;;;;;;27.11;35.00;101018.44;4967348;28;20034;-80
2022/07/19 07:51:39;;;;;;;3.58;1.13;;;;;;;27.24;33.87;101020.34;4970139;28;20034;-80
2022/07/19 07:54:05;;;;;;;2.22;0.70;;;;;;;27.31;34.38;101021.66;4971341;28;20042;-79
2022/07/19 07:56:31;;;;;;;4.22;0.90;;;;;;;27.39;34.31;101018.44;4968003;28;20038;-79
2022/07/19 07:58:57;;;;;;;1.65;0.80;;;;;;;27.43;33.95;101010.00;4966942;28;20062;-79
2022/07/19 08:01:22;;;;;;;2.40;0.70;;;;;;;27.54;34.21;101012.81;4985244;28;20043;-80
2022/07/19 08:03:48;;;;;;;2.50;1.50;;;;;;;27.68;33.38;101008.25;4977334;28;20047;-80
2022/07/19 08:06:15;;;;;;;1.70;0.73;;;;;;;27.79;33.21;101027.34;4987563;28;20057;-80
2022/07/19 08:08:41;;;;;;;3.50;1.38;;;;;;;27.90;33.11;101008.53;4972724;28;20098;-80
2022/07/19 08:11:07;;;;;;;3.78;0.90;;;;;;;27.94;33.63;101010.03;4985576;28;20039;-80
2022/07/19 08:13:32;;;;;;;1.60;0.88;;;;;;;28.02;32.90;101009.47;4976631;28;20045;-80
2022/07/19 08:15:58;;;;;;;3.35;0.90;;;;;;;28.15;33.14;100998.59;4993352;28;20173;-80
2022/07/19 08:18:23;;;;;;;7.35;1.10;;;;;;;28.25;32.46;100996.97;4984695;28;20038;-80
2022/07/19 08:20:49;;;;;;;2.00;0.80;;;;;;;28.37;32.86;100996.06;4987038;28;20397;-80
2022/07/19 08:23:14;;;;;;;2.90;1.67;;;;;;;28.51;31.99;100988.78;4966577;28;20055;-80
2022/07/19 08:25:40;;;;;;;3.28;1.40;;;;;;;28.63;32.42;100996.00;4998808;28;20045;-80
2022/07/19 08:28:05;;;;;;;3.45;1.00;;;;;;;28.81;31.40;100988.31;4985557;28;20058;-80
2022/07/19 08:30:31;;;;;;;2.60;0.90;;;;;;;28.96;31.74;100991.72;4980928;28;20064;-80
2022/07/19 08:32:57;;;;;;;3.97;1.30;;;;;;;29.11;31.41;100985.16;4975177;28;20038;-80
2022/07/19 08:35:22;;;;;;;1.55;0.98;;;;;;;29.21;30.77;100990.72;4987426;28;20049;-80
2022/07/19 08:37:48;;;;;;;3.33;1.35;;;;;;;29.30;31.01;100986.44;4985777;28;20576;-80
2022/07/19 08:40:13;;;;;;;1.73;1.10;;;;;;;29.42;30.12;100989.09;4993855;28;20105;-80
2022/07/19 08:42:39;;;;;;;2.72;0.93;;;;;;;29.55;29.92;100986.22;4978667;28;20039;-80
2022/07/19 08:45:11;;;;;;;3.88;1.02;;;;;;;29.64;30.26;100977.41;4970804;28;20038;-80
2022/07/19 08:47:38;;;;;;;1.00;0.70;;;;;;;29.76;28.85;100980.97;4985878;28;20034;-80
2022/07/19 08:50:07;;;;;;;3.20;1.40;;;;;;;29.88;29.29;100984.59;4975598;28;20501;-80
2022/07/19 08:52:34;;;;;;;5.00;1.20;;;;;;;29.98;29.44;100982.00;4985641;28;20034;-80
2022/07/19 08:55:00;;;;;;;1.73;0.77;;;;;;;30.02;28.67;100965.28;4989156;28;20034;-80
2022/07/19 09:00:12;;;;;;;3.38;1.42;;;;;;;30.26;28.77;100980.63;4990891;28;20536;-80
2022/07/19 09:02:38;;;;;;;2.55;1.52;;;;;;;30.38;29.13;100976.91;4991287;28;20041;-80
2022/07/19 09:05:09;;;;;;;7.35;1.83;;;;;;;30.51;27.85;100974.88;4993731;28;20038;-80
2022/07/19 09:07:37;;;;;;;3.45;1.58;;;;;;;30.64;28.92;100976.59;4984948;28;20038;-80
2022/07/19 09:10:16;;;;;;;2.35;1.08;;;;;;;30.79;27.17;100973.44;4985509;28;20062;-80
2022/07/19 09:13:03;;;;;;;4.18;1.85;;;;;;;30.88;26.02;100976.41;4985656;28;20038;-80
2022/07/19 09:15:49;;;;;;;1.52;0.82;;;;;;;30.96;27.16;100972.03;4986572;28;20206;-80
2022/07/19 09:18:31;;;;;;;3.63;1.27;;;;;;;31.04;26.03;100963.22;4965532;28;20042;-80
2022/07/19 09:20:59;;;;;;;4.07;0.80;;;;;;;31.17;25.92;100969.34;4985438;28;20038;-80
2022/07/19 09:23:25;;;;;;;5.30;1.50;;;;;;;31.28;25.88;100962.94;4992989;28;20045;-80
2022/07/19 09:25:56;;;;;;;1.60;0.60;;;;;;;31.36;25.88;100968.63;5008404;23;20045;-83
2022/07/19 09:28:24;;;;;;;5.07;1.42;;;;;;;31.52;25.69;100961.84;5006930;28;20124;-82
2022/07/19 09:30:54;;;;;;;8.57;2.15;;;;;;;31.66;25.84;100961.50;5013107;28;20179;-84
2022/07/19 09:33:22;;;;;;;3.97;1.00;;;;;;;31.37;23.54;100956.75;5015355;28;20508;-82
2022/07/19 09:35:53;;;;;;;1.70;0.90;;;;;;;31.38;22.89;100950.28;5007706;28;20117;-82
2022/07/19 09:38:33;;;;;;;1.85;1.02;;;;;;;31.49;23.84;100952.06;5011278;28;20033;-82
2022/07/19 09:41:09;;;;;;;2.43;1.10;;;;;;;31.66;23.83;100953.31;5026625;28;20424;-82
2022/07/19 09:43:52;;;;;;;3.10;1.20;;;;;;;31.82;23.57;100959.13;5014184;28;20106;-82
2022/07/19 09:46:31;;;;;;;2.20;1.25;;;;;;;31.86;23.48;100952.41;5007347;28;20053;-82
2022/07/19 09:49:14;;;;;;;3.47;1.33;;;;;;;32.05;23.20;100945.31;5005908;28;20033;-82
2022/07/19 09:51:42;;;;;;;3.08;1.65;;;;;;;32.11;23.21;100947.50;5020971;28;20172;-82
2022/07/19 09:54:10;;;;;;;11.05;1.17;;;;;;;32.33;23.25;100953.72;5003849;28;20046;-82
2022/07/19 09:56:37;;;;;;;1.10;0.52;;;;;;;32.45;22.80;100944.41;5005229;28;20077;-82
2022/07/19 09:59:03;;;;;;;0.98;0.68;;;;;;;32.56;21.86;100940.72;4994587;28;20034;-81
2022/07/19 10:01:29;;;;;;;0.90;0.60;;;;;;;32.64;21.96;100939.00;5011965;28;20097;-81
2022/07/19 10:03:58;;;;;;;0.95;0.60;;;;;;;32.76;21.09;100952.53;5013786;28;20038;-82
2022/07/19 10:06:25;;;;;;;2.05;0.55;;;;;;;32.73;21.37;100942.75;5013759;28;20026;-81
2022/07/19 10:08:51;;;;;;;1.13;0.50;;;;;;;32.84;21.30;100939.88;5012523;28;20092;-82
2022/07/19 10:11:17;;;;;;;2.38;1.00;;;;;;;33.01;21.56;100941.03;5011713;28;20046;-81
2022/07/19 10:13:43;;;;;;;1.98;1.10;;;;;;;33.05;20.95;100939.75;5009947;28;20062;-83
2022/07/19 10:16:15;;;;;;;1.50;0.60;;;;;;;33.10;21.13;100944.78;5026116;28;20073;-81
2022/07/19 10:18:54;;;;;;;1.75;1.00;;;;;;;33.18;20.55;100943.03;5012661;28;20128;-82
2022/07/19 10:21:20;;;;;;;1.85;0.98;;;;;;;33.23;20.43;100941.75;5007406;28;20038;-82
2022/07/19 10:23:52;;;;;;;1.77;1.17;;;;;;;33.41;20.52;100930.91;5007632;28;20026;-83
2022/07/19 10:26:40;;;;;;;1.70;1.13;;;;;;;33.51;19.97;100926.25;5004569;28;20030;-83
2022/07/19 10:29:10;;;;;;;7.13;2.22;;;;;;;33.57;20.90;100915.63;5005539;28;20084;-82
2022/07/19 10:31:36;;;;;;;2.53;1.25;;;;;;;33.73;21.11;100922.34;5005645;28;20128;-83
2022/07/19 10:34:08;;;;;;;1.95;1.20;;;;;;;33.90;20.91;100923.38;5007852;28;20069;-80
2022/07/19 10:36:44;;;;;;;1.73;1.00;;;;;;;33.87;20.54;100912.75;5007126;28;20038;-83
2022/07/19 10:39:19;;;;;;;1.67;0.90;;;;;;;33.85;19.93;100907.41;5010452;28;20039;-83
2022/07/19 10:42:17;;;;;;;4.72;0.90;;;;;;;33.78;20.22;100906.31;5008961;28;20053;-82
2022/07/19 10:45:03;;;;;;;2.53;0.80;;;;;;;33.80;19.62;100905.16;5004416;28;20049;-83
2022/07/19 10:47:31;;;;;;;2.97;1.00;;;;;;;33.92;19.68;100900.31;5012727;28;20034;-83
2022/07/19 10:50:04;;;;;;;11.00;0.93;;;;;;;34.00;19.05;100905.91;5009370;28;20067;-82
2022/07/19 10:52:33;;;;;;;1.42;0.82;;;;;;;34.15;19.88;100900.81;5007957;28;20046;-83
2022/07/19 10:55:17;;;;;;;2.17;0.73;;;;;;;34.29;20.76;100898.56;5007003;28;20065;-82
2022/07/19 10:57:44;;;;;;;1.70;0.85;;;;;;;34.24;19.53;100904.50;5003385;28;20378;-82
2022/07/19 11:00:27;;;;;;;3.03;1.00;;;;;;;34.13;19.02;100900.09;5003337;28;20042;-79
2022/07/19 11:03:22;;;;;;;1.25;0.88;;;;;;;34.32;19.33;100899.09;5008799;28;20091;-79
2022/07/19 11:05:53;;;;;;;2.33;1.30;;;;;;;34.47;18.76;100896.69;5006961;28;20038;-79
2022/07/19 11:08:41;;;;;;;2.63;1.30;;;;;;;34.68;19.13;100890.91;5008840;28;20042;-79
2022/07/19 11:11:08;;;;;;;6.90;1.63;;;;;;;34.88;19.57;100889.72;5011341;28;20041;-79
2022/07/19 11:13:35;;;;;;;7.03;1.77;;;;;;;35.12;19.29;100882.75;5010093;28;20126;-79
2022/07/19 11:16:02;;;;;;;7.18;1.40;;;;;;;35.23;18.90;100876.97;5018410;28;20092;-78
2022/07/19 11:18:29;;;;;;;2.85;1.48;;;;;;;35.36;18.85;100873.78;5010815;28;20045;-79
2022/07/19 11:20:57;;;;;;;2.40;0.93;;;;;;;35.39;17.73;100873.47;5007384;28;20059;-79
2022/07/19 11:23:23;;;;;;;1.52;0.80;;;;;;;35.28;18.42;100874.59;5017160;28;20125;-79
2022/07/19 11:25:50;;;;;;;1.80;0.98;;;;;;;35.40;18.48;100871.56;5005265;28;20034;-79